Terminal Aerodrome Forecast
Issued by NWS

Home | Current Version | Previous Version | Text Only | Print | Product List | Glossary On
Versions: 1 2 3 4 5 6 7 8 9 10 11 12 13
000
FTUS46 KPDT 110500
TAFRDM
TAF
KRDM 110520Z 1106/1206 VRB05KT P6SM SCT250
     FM111200 17005KT P6SM FEW250
     FM111900 27007KT P6SM FEW090 SCT150
     FM112200 29008KT P6SM VCTS BKN090CB BKN150=

USA.gov is the U.S. government's official web portal to all federal, state and local government web resources and services.